Time;durP1;ratioP1;P1;durP2;ratioP2;P2;SDS_P1;SDS_P2;PMS_P1;PMS_P2;Temp;Humidity;BMP_temperature;BMP_pressure;BME280_temperature;BME280_humidity;BME280_pressure;Samples;Min_cycle;Max_cycle;Signal;HPM_P1;HPM_P2
2023/09/14 00:01:11;;;;;;;1.52;0.77;;;;;;;;;;4986443;28;20033;-58
2023/09/14 00:03:37;;;;;;;2.50;1.10;;;;;;;;;;4987757;28;20065;-58
2023/09/14 00:06:04;;;;;;;2.10;1.10;;;;;;;;;;4993019;28;20114;-59
2023/09/14 00:08:30;;;;;;;1.27;0.77;;;;;;;;;;4992917;28;20236;-60
2023/09/14 00:10:58;;;;;;;1.05;0.65;;;;;;;;;;4993308;28;20041;-59
2023/09/14 00:13:25;;;;;;;2.05;0.93;;;;;;;;;;4999996;28;20092;-59
2023/09/14 00:15:52;;;;;;;1.23;0.80;;;;;;;;;;4993711;28;20535;-59
2023/09/14 00:18:19;;;;;;;0.45;0.45;;;;;;;;;;4983204;28;20879;-58
2023/09/14 00:20:46;;;;;;;1.85;0.90;;;;;;;;;;4989862;28;20031;-59
2023/09/14 00:23:13;;;;;;;0.60;0.60;;;;;;;;;;4986974;28;20049;-60
2023/09/14 00:25:48;;;;;;;1.85;0.65;;;;;;;;;;4975429;28;20026;-58
2023/09/14 00:28:15;;;;;;;1.55;0.85;;;;;;;;;;4971059;28;20035;-59
2023/09/14 00:30:42;;;;;;;1.02;0.68;;;;;;;;;;4973084;28;20034;-59
2023/09/14 00:33:08;;;;;;;1.00;0.70;;;;;;;;;;4986038;28;20027;-59
2023/09/14 00:35:35;;;;;;;0.82;0.43;;;;;;;;;;4991837;28;20113;-59
2023/09/14 00:38:02;;;;;;;2.63;0.88;;;;;;;;;;4992301;28;20019;-58
2023/09/14 00:40:29;;;;;;;1.70;0.77;;;;;;;;;;4988485;28;20485;-58
2023/09/14 00:42:55;;;;;;;1.48;0.85;;;;;;;;;;4987481;28;20097;-59
2023/09/14 00:45:22;;;;;;;1.67;0.80;;;;;;;;;;4987346;28;20490;-59
2023/09/14 00:47:52;;;;;;;2.38;0.90;;;;;;;;;;4987525;28;20121;-58
2023/09/14 00:50:20;;;;;;;0.50;0.40;;;;;;;;;;4990183;28;20496;-59
2023/09/14 00:52:52;;;;;;;0.75;0.55;;;;;;;;;;4992421;28;20385;-59
2023/09/14 00:55:19;;;;;;;1.73;1.02;;;;;;;;;;4992354;28;20042;-58
2023/09/14 00:57:47;;;;;;;1.10;0.70;;;;;;;;;;4991940;28;20026;-59
2023/09/14 01:00:14;;;;;;;0.90;0.60;;;;;;;;;;4992368;28;20066;-59
2023/09/14 01:02:41;;;;;;;1.63;0.93;;;;;;;;;;4988632;28;20030;-58
2023/09/14 01:05:08;;;;;;;2.45;1.10;;;;;;;;;;4988279;28;20030;-59
2023/09/14 01:07:35;;;;;;;1.98;0.88;;;;;;;;;;4990884;28;20077;-59
2023/09/14 01:10:02;;;;;;;2.28;1.35;;;;;;;;;;4990891;28;20042;-59
2023/09/14 01:12:29;;;;;;;9.98;1.10;;;;;;;;;;4992656;28;20061;-58
2023/09/14 01:14:56;;;;;;;2.85;0.95;;;;;;;;;;4995513;28;20508;-60
2023/09/14 01:17:32;;;;;;;3.05;1.33;;;;;;;;;;4996059;28;20440;-58
2023/09/14 01:20:19;;;;;;;1.58;1.05;;;;;;;;;;4995941;28;20026;-59
2023/09/14 01:22:49;;;;;;;3.22;1.05;;;;;;;;;;4995558;28;20035;-59
2023/09/14 01:25:19;;;;;;;0.90;0.68;;;;;;;;;;4992103;28;20034;-59
2023/09/14 01:27:46;;;;;;;0.52;0.50;;;;;;;;;;4990547;28;20058;-58
2023/09/14 01:30:12;;;;;;;1.52;0.85;;;;;;;;;;4990555;28;20459;-58
2023/09/14 01:32:39;;;;;;;0.65;0.63;;;;;;;;;;4990213;28;20117;-59
2023/09/14 01:35:06;;;;;;;6.63;1.30;;;;;;;;;;4992636;28;20034;-58
2023/09/14 01:37:33;;;;;;;3.53;1.00;;;;;;;;;;4995452;28;20433;-58
2023/09/14 01:40:00;;;;;;;3.53;0.88;;;;;;;;;;4995695;28;20076;-58
2023/09/14 01:42:27;;;;;;;2.15;1.15;;;;;;;;;;4994946;28;20436;-58
2023/09/14 01:44:54;;;;;;;1.67;1.00;;;;;;;;;;4995133;28;20026;-58
2023/09/14 01:47:20;;;;;;;1.45;0.90;;;;;;;;;;4992969;28;20426;-58
2023/09/14 01:49:47;;;;;;;1.42;0.77;;;;;;;;;;4990071;28;20490;-58
2023/09/14 01:52:14;;;;;;;1.50;1.00;;;;;;;;;;4990253;28;20022;-58
2023/09/14 01:54:40;;;;;;;4.30;1.20;;;;;;;;;;4990095;28;20046;-58
2023/09/14 01:57:07;;;;;;;22.75;0.98;;;;;;;;;;4991090;28;20059;-57
2023/09/14 01:59:33;;;;;;;1.27;0.95;;;;;;;;;;4995369;28;20094;-58
2023/09/14 02:02:00;;;;;;;2.10;0.95;;;;;;;;;;4994477;28;20034;-58
2023/09/14 02:04:27;;;;;;;1.48;0.98;;;;;;;;;;4995468;28;20434;-60
2023/09/14 02:06:53;;;;;;;12.10;0.90;;;;;;;;;;4994323;28;20113;-58
2023/09/14 02:09:20;;;;;;;1.07;0.63;;;;;;;;;;4993505;28;20098;-57
2023/09/14 02:11:47;;;;;;;1.33;1.03;;;;;;;;;;4989537;28;20030;-57
2023/09/14 02:14:13;;;;;;;1.57;0.50;;;;;;;;;;4989452;28;20046;-58
2023/09/14 02:16:40;;;;;;;4.33;1.30;;;;;;;;;;4988322;28;20053;-58
2023/09/14 02:19:06;;;;;;;1.50;0.67;;;;;;;;;;4989333;28;20398;-58
2023/09/14 02:21:33;;;;;;;2.07;0.93;;;;;;;;;;4993740;28;20421;-58
2023/09/14 02:24:00;;;;;;;1.33;0.60;;;;;;;;;;4994302;28;20080;-57
2023/09/14 02:26:27;;;;;;;1.10;0.80;;;;;;;;;;4994640;28;20516;-57
2023/09/14 02:28:53;;;;;;;11.87;1.33;;;;;;;;;;4994483;28;20545;-57
2023/09/14 02:31:20;;;;;;;2.27;1.00;;;;;;;;;;4994571;28;20153;-57
2023/09/14 02:33:47;;;;;;;1.37;0.90;;;;;;;;;;4989132;28;20038;-57
2023/09/14 02:36:13;;;;;;;2.17;1.10;;;;;;;;;;4989419;28;20022;-57
2023/09/14 02:38:40;;;;;;;1.73;1.03;;;;;;;;;;4989315;28;20367;-58
2023/09/14 02:41:07;;;;;;;1.00;0.53;;;;;;;;;;4988411;28;20030;-57
2023/09/14 02:43:34;;;;;;;5.17;1.20;;;;;;;;;;4993318;28;20076;-57
2023/09/14 02:46:00;;;;;;;1.93;0.80;;;;;;;;;;4994319;28;20030;-58
2023/09/14 02:48:27;;;;;;;1.70;1.20;;;;;;;;;;4994149;28;20033;-58
2023/09/14 02:50:54;;;;;;;18.37;1.30;;;;;;;;;;4992622;28;20500;-58
2023/09/14 02:53:20;;;;;;;3.47;0.97;;;;;;;;;;4994143;28;20037;-57
2023/09/14 02:55:47;;;;;;;1.10;0.90;;;;;;;;;;4989534;28;20034;-57
2023/09/14 02:58:13;;;;;;;1.83;1.13;;;;;;;;;;4988767;28;20027;-58
2023/09/14 03:00:40;;;;;;;1.70;1.13;;;;;;;;;;4988208;28;20026;-57
2023/09/14 03:03:11;;;;;;;1.60;0.83;;;;;;;;;;4988896;28;20473;-57
2023/09/14 03:05:38;;;;;;;1.30;1.10;;;;;;;;;;4992095;28;20026;-57
2023/09/14 03:08:05;;;;;;;0.90;0.70;;;;;;;;;;4993861;28;20463;-58
2023/09/14 03:10:31;;;;;;;2.10;0.93;;;;;;;;;;4993165;28;20109;-57
2023/09/14 03:12:58;;;;;;;2.83;1.33;;;;;;;;;;4993811;28;20106;-57
2023/09/14 03:15:25;;;;;;;3.17;1.27;;;;;;;;;;4993454;28;20390;-57
2023/09/14 03:17:51;;;;;;;2.97;1.20;;;;;;;;;;4989744;28;20038;-57
2023/09/14 03:20:18;;;;;;;1.70;1.07;;;;;;;;;;4988407;28;20030;-57
2023/09/14 03:22:44;;;;;;;1.13;0.73;;;;;;;;;;4988322;28;20421;-58
2023/09/14 03:25:11;;;;;;;1.00;0.57;;;;;;;;;;4988341;28;20025;-57
2023/09/14 03:27:38;;;;;;;1.83;1.27;;;;;;;;;;4990495;28;20113;-57
2023/09/14 03:30:05;;;;;;;1.67;1.07;;;;;;;;;;4993192;28;20508;-57
2023/09/14 03:32:32;;;;;;;4.30;1.30;;;;;;;;;;4993076;28;20373;-57
2023/09/14 03:34:59;;;;;;;0.93;0.80;;;;;;;;;;4993297;28;20073;-57
2023/09/14 03:37:25;;;;;;;3.50;1.23;;;;;;;;;;4993203;28;20156;-57
2023/09/14 03:39:52;;;;;;;0.97;0.70;;;;;;;;;;4990863;28;20101;-57
2023/09/14 03:42:19;;;;;;;5.03;1.20;;;;;;;;;;4988048;28;20068;-57
2023/09/14 03:44:45;;;;;;;1.80;1.03;;;;;;;;;;4986963;28;20026;-58
2023/09/14 03:47:12;;;;;;;2.87;1.10;;;;;;;;;;4986925;28;20117;-57
2023/09/14 03:49:39;;;;;;;2.50;1.33;;;;;;;;;;4988924;28;20030;-57
2023/09/14 03:52:05;;;;;;;1.67;0.87;;;;;;;;;;4993168;28;20025;-57
2023/09/14 03:54:32;;;;;;;0.70;0.60;;;;;;;;;;4992770;28;20125;-57
2023/09/14 03:56:59;;;;;;;2.60;1.00;;;;;;;;;;4991959;28;20511;-57
2023/09/14 03:59:26;;;;;;;0.93;0.70;;;;;;;;;;4992160;28;20093;-59
2023/09/14 04:01:52;;;;;;;1.17;0.80;;;;;;;;;;4996378;28;20359;-58
2023/09/14 04:04:19;;;;;;;2.93;1.40;;;;;;;;;;5006240;28;20080;-60
2023/09/14 04:06:49;;;;;;;1.03;0.73;;;;;;;;;;4992950;28;20069;-58
2023/09/14 04:09:15;;;;;;;2.83;1.37;;;;;;;;;;4987661;28;20070;-58
2023/09/14 04:11:42;;;;;;;27.37;1.37;;;;;;;;;;5005575;28;20056;-58
2023/09/14 04:14:09;;;;;;;2.97;1.60;;;;;;;;;;5012521;28;20034;-58
2023/09/14 04:16:36;;;;;;;25.30;2.10;;;;;;;;;;5009697;28;20472;-59
2023/09/14 04:19:02;;;;;;;4.40;1.93;;;;;;;;;;4992800;28;20026;-58
2023/09/14 04:21:29;;;;;;;1.60;1.00;;;;;;;;;;4992652;28;20026;-58
2023/09/14 04:23:56;;;;;;;5.97;1.33;;;;;;;;;;4992327;28;20524;-58
2023/09/14 04:26:22;;;;;;;1.83;0.90;;;;;;;;;;4987383;28;20037;-58
2023/09/14 04:28:50;;;;;;;7.50;1.90;;;;;;;;;;4987563;28;20109;-58
2023/09/14 04:31:17;;;;;;;2.77;1.37;;;;;;;;;;4987400;28;20080;-58
2023/09/14 04:33:44;;;;;;;1.03;0.80;;;;;;;;;;4987269;28;20054;-57
2023/09/14 04:36:11;;;;;;;5.57;1.33;;;;;;;;;;4991648;28;20034;-57
2023/09/14 04:38:38;;;;;;;9.97;1.63;;;;;;;;;;4992512;28;20092;-58
2023/09/14 04:41:05;;;;;;;2.03;0.70;;;;;;;;;;4994779;28;20052;-58
2023/09/14 04:43:32;;;;;;;2.00;0.90;;;;;;;;;;4996533;28;20034;-58
2023/09/14 04:46:00;;;;;;;0.73;0.60;;;;;;;;;;4996759;28;20054;-58
2023/09/14 04:48:27;;;;;;;1.13;0.70;;;;;;;;;;4991727;28;20117;-58
2023/09/14 04:50:56;;;;;;;0.97;0.77;;;;;;;;;;4991129;28;20070;-58
2023/09/14 04:53:23;;;;;;;3.80;1.07;;;;;;;;;;4990772;28;20034;-58
2023/09/14 04:55:50;;;;;;;1.33;1.00;;;;;;;;;;4991047;28;20042;-58
2023/09/14 04:58:16;;;;;;;1.23;0.83;;;;;;;;;;4995037;28;20436;-58
2023/09/14 05:00:43;;;;;;;1.37;0.67;;;;;;;;;;4996142;28;20034;-58
2023/09/14 05:03:10;;;;;;;2.67;1.30;;;;;;;;;;4996194;28;20053;-57
2023/09/14 05:05:36;;;;;;;3.30;0.87;;;;;;;;;;4995729;28;20077;-57
2023/09/14 05:08:03;;;;;;;1.30;0.90;;;;;;;;;;4995848;28;20109;-58
2023/09/14 05:10:30;;;;;;;2.83;0.73;;;;;;;;;;4992327;28;20035;-58
2023/09/14 05:12:56;;;;;;;1.47;0.90;;;;;;;;;;4990482;28;20022;-58
2023/09/14 05:15:23;;;;;;;1.47;1.13;;;;;;;;;;4990708;28;20030;-57
2023/09/14 05:17:50;;;;;;;14.63;0.57;;;;;;;;;;4990804;28;20437;-58
2023/09/14 05:20:17;;;;;;;2.27;1.27;;;;;;;;;;4993517;28;20105;-57
2023/09/14 05:22:44;;;;;;;11.07;1.70;;;;;;;;;;4995736;28;20473;-59
2023/09/14 05:25:11;;;;;;;1.70;1.03;;;;;;;;;;4976275;28;20486;-58
2023/09/14 05:27:38;;;;;;;1.53;0.70;;;;;;;;;;4976303;28;20402;-58
2023/09/14 05:30:06;;;;;;;1.23;0.73;;;;;;;;;;4975994;28;20066;-57
2023/09/14 05:32:33;;;;;;;0.50;0.50;;;;;;;;;;4973352;28;20400;-57
2023/09/14 05:35:00;;;;;;;4.23;1.43;;;;;;;;;;4971054;28;20803;-58
2023/09/14 05:37:27;;;;;;;2.30;0.90;;;;;;;;;;4971016;28;20409;-58
2023/09/14 05:39:54;;;;;;;1.53;1.13;;;;;;;;;;4971007;28;20042;-58
2023/09/14 05:42:23;;;;;;;1.90;1.10;;;;;;;;;;4972408;28;20035;-58
2023/09/14 05:44:50;;;;;;;0.87;0.73;;;;;;;;;;4992090;28;20054;-58
2023/09/14 05:47:17;;;;;;;0.50;0.40;;;;;;;;;;4995360;28;20022;-58
2023/09/14 05:49:45;;;;;;;5.33;1.10;;;;;;;;;;4995141;28;20367;-58
2023/09/14 05:52:12;;;;;;;1.23;0.73;;;;;;;;;;4995257;28;20039;-58
2023/09/14 05:54:39;;;;;;;1.10;0.77;;;;;;;;;;4993309;28;20034;-58
2023/09/14 05:57:06;;;;;;;1.43;1.10;;;;;;;;;;4989988;28;20485;-57
2023/09/14 05:59:33;;;;;;;2.57;0.80;;;;;;;;;;4989891;28;20030;-58
2023/09/14 06:01:59;;;;;;;0.80;0.57;;;;;;;;;;4990101;28;20026;-58
2023/09/14 06:04:26;;;;;;;8.77;1.27;;;;;;;;;;4990742;28;20031;-58
2023/09/14 06:06:52;;;;;;;0.93;0.70;;;;;;;;;;4994453;28;20026;-58
2023/09/14 06:09:19;;;;;;;1.07;0.57;;;;;;;;;;4994788;28;20381;-58
2023/09/14 06:11:46;;;;;;;1.40;1.07;;;;;;;;;;4994936;28;20036;-58
2023/09/14 06:14:12;;;;;;;0.97;0.53;;;;;;;;;;4994973;28;20065;-58
2023/09/14 06:16:39;;;;;;;1.83;1.30;;;;;;;;;;4994109;28;20026;-58
2023/09/14 06:19:06;;;;;;;2.30;1.07;;;;;;;;;;4989592;28;20113;-58
2023/09/14 06:21:34;;;;;;;1.10;0.90;;;;;;;;;;4989680;28;20045;-57
2023/09/14 06:24:01;;;;;;;4.80;1.63;;;;;;;;;;4989158;28;20030;-58
2023/09/14 06:26:30;;;;;;;2.33;1.20;;;;;;;;;;4988962;28;20057;-57
2023/09/14 06:28:57;;;;;;;4.97;1.20;;;;;;;;;;4994303;28;20031;-58
2023/09/14 06:31:24;;;;;;;0.83;0.70;;;;;;;;;;4993992;28;20385;-58
2023/09/14 06:33:52;;;;;;;11.20;1.43;;;;;;;;;;4994363;28;20045;-58
2023/09/14 06:36:19;;;;;;;6.70;1.63;;;;;;;;;;4994333;28;20040;-59
2023/09/14 06:38:49;;;;;;;1.40;1.03;;;;;;;;;;4994495;28;20106;-59
2023/09/14 06:41:16;;;;;;;1.20;0.90;;;;;;;;;;4989161;28;20038;-58
2023/09/14 06:43:45;;;;;;;2.07;1.00;;;;;;;;;;4988826;28;20504;-58
2023/09/14 06:46:12;;;;;;;1.70;1.03;;;;;;;;;;4988729;28;20049;-58
2023/09/14 06:48:39;;;;;;;1.07;0.60;;;;;;;;;;4989043;28;20379;-58
2023/09/14 06:51:05;;;;;;;5.03;1.40;;;;;;;;;;4993411;28;20025;-57
2023/09/14 06:53:32;;;;;;;1.50;0.93;;;;;;;;;;4993988;28;20157;-58
2023/09/14 06:56:05;;;;;;;1.03;0.90;;;;;;;;;;4993947;28;20030;-58
2023/09/14 06:58:32;;;;;;;3.07;1.53;;;;;;;;;;4994197;28;20031;-58
2023/09/14 07:01:03;;;;;;;9.87;1.13;;;;;;;;;;4993779;28;20410;-58
2023/09/14 07:03:30;;;;;;;0.80;0.70;;;;;;;;;;4988677;28;20081;-58
2023/09/14 07:05:57;;;;;;;1.90;1.27;;;;;;;;;;4987692;28;20422;-58
2023/09/14 07:08:23;;;;;;;7.70;1.20;;;;;;;;;;4988200;28;20346;-57
2023/09/14 07:10:50;;;;;;;0.90;0.80;;;;;;;;;;4988260;28;20038;-58
2023/09/14 07:13:16;;;;;;;0.50;0.50;;;;;;;;;;4991974;28;20337;-58
2023/09/14 07:15:43;;;;;;;0.87;0.73;;;;;;;;;;4992999;28;20070;-58
2023/09/14 07:18:26;;;;;;;0.63;0.57;;;;;;;;;;4992823;28;20426;-58
2023/09/14 07:20:53;;;;;;;0.93;0.70;;;;;;;;;;4993468;28;20034;-58
2023/09/14 07:23:20;;;;;;;4.87;1.23;;;;;;;;;;4993265;28;20026;-59
2023/09/14 07:25:48;;;;;;;2.23;0.90;;;;;;;;;;4988871;28;20105;-58
2023/09/14 07:28:18;;;;;;;0.97;0.50;;;;;;;;;;4988227;28;20026;-58
2023/09/14 07:30:44;;;;;;;2.40;1.23;;;;;;;;;;4987849;28;20050;-57
2023/09/14 07:33:11;;;;;;;1.37;0.90;;;;;;;;;;4987970;28;20038;-58
2023/09/14 07:35:39;;;;;;;0.97;0.87;;;;;;;;;;4991218;28;20069;-59
2023/09/14 07:38:08;;;;;;;1.60;1.20;;;;;;;;;;4993149;28;20102;-58
2023/09/14 07:40:35;;;;;;;1.83;0.80;;;;;;;;;;4993225;28;20038;-58
2023/09/14 07:43:02;;;;;;;1.93;1.17;;;;;;;;;;4993193;28;20038;-58
2023/09/14 07:45:30;;;;;;;1.57;0.90;;;;;;;;;;4992905;28;20026;-59
2023/09/14 07:47:56;;;;;;;5.20;1.40;;;;;;;;;;4989316;28;20030;-58
2023/09/14 07:50:23;;;;;;;1.63;1.00;;;;;;;;;;4987548;28;20073;-58
2023/09/14 07:52:50;;;;;;;2.47;1.00;;;;;;;;;;4987520;28;20473;-59
2023/09/14 07:55:16;;;;;;;1.53;1.17;;;;;;;;;;4987742;28;20123;-58
2023/09/14 07:57:43;;;;;;;1.60;1.00;;;;;;;;;;4990353;28;20109;-58
2023/09/14 08:00:10;;;;;;;2.03;1.07;;;;;;;;;;4992984;28;20101;-59
2023/09/14 08:02:37;;;;;;;5.37;1.40;;;;;;;;;;4992699;28;20030;-59
2023/09/14 08:05:03;;;;;;;0.97;0.73;;;;;;;;;;4992839;28;20026;-58
2023/09/14 08:07:30;;;;;;;1.30;0.93;;;;;;;;;;4992490;28;20026;-58
2023/09/14 08:09:56;;;;;;;0.57;0.57;;;;;;;;;;4989941;28;20474;-58
2023/09/14 08:12:23;;;;;;;1.23;1.00;;;;;;;;;;4987163;28;20038;-58
2023/09/14 08:14:50;;;;;;;2.07;1.10;;;;;;;;;;4986586;28;20038;-58
2023/09/14 08:17:16;;;;;;;2.43;1.67;;;;;;;;;;4987736;28;20062;-58
2023/09/14 08:19:43;;;;;;;0.80;0.63;;;;;;;;;;4989511;28;20022;-58
2023/09/14 08:22:10;;;;;;;2.20;1.30;;;;;;;;;;4992273;28;20037;-58
2023/09/14 08:24:36;;;;;;;1.67;1.20;;;;;;;;;;4992864;28;20380;-58
2023/09/14 08:27:03;;;;;;;1.43;1.20;;;;;;;;;;4992238;28;20074;-58
2023/09/14 08:29:30;;;;;;;1.37;1.00;;;;;;;;;;4992645;28;20022;-58
2023/09/14 08:31:57;;;;;;;1.17;0.70;;;;;;;;;;4990528;28;20034;-58
2023/09/14 08:34:23;;;;;;;2.87;1.00;;;;;;;;;;4987203;28;20030;-58
2023/09/14 08:36:50;;;;;;;1.10;0.90;;;;;;;;;;4987296;28;21067;-58
2023/09/14 08:39:16;;;;;;;5.87;1.23;;;;;;;;;;4987258;28;20556;-58
2023/09/14 08:41:43;;;;;;;1.97;0.80;;;;;;;;;;4988408;28;20050;-58
2023/09/14 08:44:10;;;;;;;0.90;0.70;;;;;;;;;;4992305;28;20035;-58
2023/09/14 08:46:36;;;;;;;1.07;0.63;;;;;;;;;;4992132;28;20023;-58
2023/09/14 08:49:04;;;;;;;1.17;0.77;;;;;;;;;;4992345;28;20520;-58
2023/09/14 08:51:31;;;;;;;1.33;0.87;;;;;;;;;;4992335;28;20030;-58
2023/09/14 08:53:58;;;;;;;4.83;0.97;;;;;;;;;;4991618;28;20022;-58
2023/09/14 08:56:25;;;;;;;1.53;1.20;;;;;;;;;;4987306;28;20019;-58
2023/09/14 08:58:52;;;;;;;1.80;1.07;;;;;;;;;;4986997;28;20053;-58
2023/09/14 09:01:19;;;;;;;0.90;0.70;;;;;;;;;;4986941;28;20552;-58
2023/09/14 09:03:46;;;;;;;1.00;0.80;;;;;;;;;;4987051;28;20081;-58
2023/09/14 09:06:12;;;;;;;1.23;0.80;;;;;;;;;;4991819;28;20073;-57
2023/09/14 09:08:39;;;;;;;3.40;1.07;;;;;;;;;;4992261;28;20026;-58
2023/09/14 09:11:07;;;;;;;2.57;0.90;;;;;;;;;;4992247;28;20030;-59
2023/09/14 09:13:36;;;;;;;0.90;0.80;;;;;;;;;;4992251;28;20049;-58
2023/09/14 09:16:03;;;;;;;1.37;1.07;;;;;;;;;;4992167;28;20034;-58
2023/09/14 09:18:30;;;;;;;0.93;0.70;;;;;;;;;;4986639;28;20377;-58
2023/09/14 09:20:57;;;;;;;2.60;1.50;;;;;;;;;;4986687;28;20795;-57
2023/09/14 09:23:26;;;;;;;1.80;0.87;;;;;;;;;;4986491;28;20058;-57
2023/09/14 09:25:53;;;;;;;1.03;0.90;;;;;;;;;;4987130;28;20498;-58
2023/09/14 09:28:20;;;;;;;2.00;1.17;;;;;;;;;;4995042;28;20505;-58
2023/09/14 09:30:53;;;;;;;1.80;1.13;;;;;;;;;;4995551;28;20026;-58
2023/09/14 09:33:32;;;;;;;1.00;0.67;;;;;;;;;;4995548;28;20030;-58
2023/09/14 09:36:00;;;;;;;2.20;1.20;;;;;;;;;;4995236;28;20035;-58
2023/09/14 09:38:28;;;;;;;1.20;0.80;;;;;;;;;;4995576;28;20030;-58
2023/09/14 09:40:55;;;;;;;13.77;1.33;;;;;;;;;;4989857;28;20572;-57
2023/09/14 09:43:24;;;;;;;2.30;1.03;;;;;;;;;;4990067;28;20105;-57
2023/09/14 09:45:54;;;;;;;1.67;0.87;;;;;;;;;;4990000;28;20052;-58
2023/09/14 09:48:20;;;;;;;0.80;0.60;;;;;;;;;;4990007;28;20030;-58
2023/09/14 09:50:47;;;;;;;1.10;0.67;;;;;;;;;;4994375;28;20124;-57
2023/09/14 09:53:15;;;;;;;2.03;0.93;;;;;;;;;;4995052;28;20026;-57
2023/09/14 09:55:44;;;;;;;1.37;0.97;;;;;;;;;;4995210;28;20034;-58
2023/09/14 09:58:11;;;;;;;1.27;0.73;;;;;;;;;;4995145;28;20559;-57
2023/09/14 10:00:39;;;;;;;6.77;1.37;;;;;;;;;;4994775;28;20034;-58
2023/09/14 10:03:06;;;;;;;3.10;1.87;;;;;;;;;;4990489;28;20030;-57
2023/09/14 10:05:33;;;;;;;2.33;1.03;;;;;;;;;;4989762;28;20026;-57
2023/09/14 10:08:02;;;;;;;7.60;1.47;;;;;;;;;;4989613;28;20033;-57
2023/09/14 10:10:29;;;;;;;1.63;1.00;;;;;;;;;;4988781;28;20118;-58
2023/09/14 10:12:56;;;;;;;0.90;0.70;;;;;;;;;;4993519;28;20022;-58
2023/09/14 10:15:27;;;;;;;1.23;0.87;;;;;;;;;;4995035;28;20030;-57
2023/09/14 10:17:57;;;;;;;1.50;0.87;;;;;;;;;;4994737;28;20026;-58
2023/09/14 10:20:24;;;;;;;1.90;0.93;;;;;;;;;;4994638;28;20038;-57
2023/09/14 10:22:51;;;;;;;1.43;0.90;;;;;;;;;;4994651;28;20027;-58
2023/09/14 10:25:19;;;;;;;3.00;1.40;;;;;;;;;;4990220;28;20022;-57
2023/09/14 10:27:45;;;;;;;1.10;0.97;;;;;;;;;;4989179;28;20026;-58
2023/09/14 10:30:17;;;;;;;1.33;1.07;;;;;;;;;;4989078;28;20034;-57
2023/09/14 10:32:44;;;;;;;2.03;1.30;;;;;;;;;;4989107;28;20434;-58
2023/09/14 10:35:11;;;;;;;1.53;1.10;;;;;;;;;;4992697;28;20030;-57
2023/09/14 10:37:39;;;;;;;0.80;0.53;;;;;;;;;;4993435;28;20473;-58
2023/09/14 10:40:08;;;;;;;0.90;0.70;;;;;;;;;;4994212;28;20393;-58
2023/09/14 10:42:34;;;;;;;2.00;1.20;;;;;;;;;;4993760;28;20394;-57
2023/09/14 10:45:02;;;;;;;3.53;1.17;;;;;;;;;;4994480;28;20019;-57
2023/09/14 10:47:33;;;;;;;1.30;0.87;;;;;;;;;;4990510;28;20041;-57
2023/09/14 10:50:00;;;;;;;0.97;0.70;;;;;;;;;;4988168;28;20033;-57
2023/09/14 10:52:29;;;;;;;1.77;1.23;;;;;;;;;;4988406;28;20088;-58
2023/09/14 10:54:59;;;;;;;1.50;0.90;;;;;;;;;;4988721;28;20401;-57
2023/09/14 10:57:27;;;;;;;9.23;1.53;;;;;;;;;;4991816;28;20485;-57
2023/09/14 10:59:55;;;;;;;4.50;1.07;;;;;;;;;;4993586;28;20031;-57
2023/09/14 11:02:42;;;;;;;1.83;1.17;;;;;;;;;;4994015;28;20027;-57
2023/09/14 11:05:24;;;;;;;1.20;0.83;;;;;;;;;;4993692;28;20034;-57
2023/09/14 11:07:58;;;;;;;4.20;1.33;;;;;;;;;;4993381;28;20378;-57
2023/09/14 11:10:25;;;;;;;3.13;1.33;;;;;;;;;;4988561;28;20150;-57
2023/09/14 11:12:52;;;;;;;1.57;1.03;;;;;;;;;;4988490;28;20433;-58
2023/09/14 11:15:22;;;;;;;1.97;1.10;;;;;;;;;;4988367;28;20525;-57
2023/09/14 11:17:52;;;;;;;1.37;0.87;;;;;;;;;;4988279;28;20030;-58
2023/09/14 11:20:25;;;;;;;1.50;1.00;;;;;;;;;;4992207;28;20532;-57
2023/09/14 11:22:53;;;;;;;0.47;0.47;;;;;;;;;;4993464;28;20033;-57
2023/09/14 11:25:28;;;;;;;3.70;1.27;;;;;;;;;;4993618;28;20053;-57
2023/09/14 11:27:56;;;;;;;2.47;1.07;;;;;;;;;;4993604;28;20030;-57
2023/09/14 11:30:30;;;;;;;1.80;1.17;;;;;;;;;;4993130;28;20509;-57
2023/09/14 11:32:57;;;;;;;1.33;1.00;;;;;;;;;;4988181;28;20042;-57
2023/09/14 11:35:34;;;;;;;1.93;1.23;;;;;;;;;;4987403;28;20031;-58
2023/09/14 11:38:06;;;;;;;0.70;0.60;;;;;;;;;;4987990;28;20451;-57
2023/09/14 11:40:34;;;;;;;1.90;1.33;;;;;;;;;;4987705;28;20121;-57
2023/09/14 11:43:07;;;;;;;1.00;0.87;;;;;;;;;;4992760;28;20421;-57
2023/09/14 11:45:38;;;;;;;1.83;1.37;;;;;;;;;;4993274;28;20470;-57
2023/09/14 11:48:06;;;;;;;1.47;1.20;;;;;;;;;;4992915;28;20130;-57
2023/09/14 11:50:34;;;;;;;7.77;1.00;;;;;;;;;;4992817;28;20030;-58
2023/09/14 11:53:01;;;;;;;3.00;1.17;;;;;;;;;;4992868;28;20481;-57
2023/09/14 11:55:28;;;;;;;1.73;1.07;;;;;;;;;;4987715;28;20038;-57
2023/09/14 11:57:57;;;;;;;3.20;1.33;;;;;;;;;;4987902;28;20022;-57
2023/09/14 12:00:24;;;;;;;0.90;0.70;;;;;;;;;;4987515;28;20029;-58
2023/09/14 12:02:51;;;;;;;2.77;1.63;;;;;;;;;;4987338;28;20032;-57
2023/09/14 12:05:17;;;;;;;1.93;1.33;;;;;;;;;;4992069;28;20069;-58
2023/09/14 12:07:44;;;;;;;1.57;1.20;;;;;;;;;;4992801;28;20030;-57
2023/09/14 12:10:18;;;;;;;5.43;1.37;;;;;;;;;;4992338;28;20389;-57
2023/09/14 12:12:44;;;;;;;1.97;1.30;;;;;;;;;;4992648;28;20033;-58
2023/09/14 12:15:18;;;;;;;1.20;0.97;;;;;;;;;;4992759;28;20039;-57
2023/09/14 12:17:50;;;;;;;14.73;1.73;;;;;;;;;;4987209;28;20031;-57
2023/09/14 12:20:17;;;;;;;7.83;1.50;;;;;;;;;;4987171;28;20034;-58
2023/09/14 12:22:44;;;;;;;1.73;1.33;;;;;;;;;;4987357;28;20036;-58
2023/09/14 12:25:13;;;;;;;2.67;1.37;;;;;;;;;;4987374;28;20033;-58
2023/09/14 12:27:41;;;;;;;2.37;1.70;;;;;;;;;;4992020;28;20365;-57
2023/09/14 12:30:08;;;;;;;2.67;1.77;;;;;;;;;;4992228;28;20061;-57
2023/09/14 12:32:36;;;;;;;1.73;1.37;;;;;;;;;;4992595;28;20030;-58
2023/09/14 12:35:04;;;;;;;4.53;1.70;;;;;;;;;;4992234;28;20109;-57
2023/09/14 12:37:31;;;;;;;1.93;1.10;;;;;;;;;;4992107;28;20031;-57
2023/09/14 12:39:57;;;;;;;2.73;1.83;;;;;;;;;;4987944;28;20511;-57
2023/09/14 12:42:25;;;;;;;5.20;2.43;;;;;;;;;;4987383;28;20038;-57
2023/09/14 12:44:53;;;;;;;2.20;1.70;;;;;;;;;;4987102;28;20441;-58
2023/09/14 12:47:20;;;;;;;2.70;1.67;;;;;;;;;;4987151;28;20022;-57
2023/09/14 12:49:47;;;;;;;5.50;3.03;;;;;;;;;;4990889;28;20038;-57
2023/09/14 12:52:13;;;;;;;4.13;3.03;;;;;;;;;;4992074;28;20050;-57
2023/09/14 12:54:44;;;;;;;3.27;2.53;;;;;;;;;;4992272;28;20038;-58
2023/09/14 12:57:11;;;;;;;6.77;3.53;;;;;;;;;;4992131;28;20493;-57
2023/09/14 12:59:39;;;;;;;6.90;2.80;;;;;;;;;;4992342;28;20031;-57
2023/09/14 13:02:05;;;;;;;8.40;3.83;;;;;;;;;;4990491;28;20034;-57
2023/09/14 13:04:36;;;;;;;1.80;1.40;;;;;;;;;;4990958;28;20092;-57
2023/09/14 13:07:03;;;;;;;3.03;1.17;;;;;;;;;;4990419;28;20026;-57
2023/09/14 13:09:32;;;;;;;5.07;1.87;;;;;;;;;;4990516;28;20061;-57
2023/09/14 13:12:01;;;;;;;1.17;0.97;;;;;;;;;;4993989;28;20077;-57
2023/09/14 13:14:27;;;;;;;2.40;1.57;;;;;;;;;;4995848;28;20042;-57
2023/09/14 13:16:55;;;;;;;2.43;1.30;;;;;;;;;;4995734;28;20489;-57
2023/09/14 13:19:25;;;;;;;2.30;1.57;;;;;;;;;;4995709;28;20052;-58
2023/09/14 13:21:52;;;;;;;3.13;1.73;;;;;;;;;;4995647;28;20030;-57
2023/09/14 13:24:19;;;;;;;2.70;1.80;;;;;;;;;;4991668;28;20030;-57
2023/09/14 13:26:46;;;;;;;3.13;1.63;;;;;;;;;;4990150;28;20026;-57
2023/09/14 13:29:17;;;;;;;2.43;1.60;;;;;;;;;;4990443;28;20026;-58
2023/09/14 13:31:44;;;;;;;2.93;1.77;;;;;;;;;;4989968;28;20038;-58
2023/09/14 13:34:10;;;;;;;1.50;1.17;;;;;;;;;;4993124;28;20465;-57
2023/09/14 13:36:37;;;;;;;3.53;2.13;;;;;;;;;;4995031;28;20026;-57
2023/09/14 13:39:03;;;;;;;3.00;1.67;;;;;;;;;;4995655;28;20018;-58
2023/09/14 13:41:30;;;;;;;2.50;1.90;;;;;;;;;;4995029;28;20023;-57
2023/09/14 13:43:57;;;;;;;2.03;1.60;;;;;;;;;;4994060;28;20054;-58
2023/09/14 13:46:23;;;;;;;2.87;1.90;;;;;;;;;;4991426;28;20064;-58
2023/09/14 13:48:56;;;;;;;6.37;2.60;;;;;;;;;;4989742;28;20125;-57
2023/09/14 13:51:22;;;;;;;3.97;2.53;;;;;;;;;;4989947;28;20042;-58
2023/09/14 13:53:50;;;;;;;3.70;2.60;;;;;;;;;;4989285;28;20056;-58
2023/09/14 13:56:16;;;;;;;2.87;2.10;;;;;;;;;;4992393;28;20031;-58
2023/09/14 13:58:43;;;;;;;3.23;2.20;;;;;;;;;;4994822;28;20474;-57
2023/09/14 14:01:10;;;;;;;6.50;3.00;;;;;;;;;;4995142;28;20022;-57
2023/09/14 14:03:37;;;;;;;2.23;1.50;;;;;;;;;;4994741;28;20034;-58
2023/09/14 14:06:04;;;;;;;3.73;1.97;;;;;;;;;;4995054;28;20054;-58
2023/09/14 14:08:31;;;;;;;2.37;1.50;;;;;;;;;;4992090;28;20026;-58
2023/09/14 14:10:58;;;;;;;1.87;1.20;;;;;;;;;;4989480;28;20405;-58
2023/09/14 14:13:24;;;;;;;2.00;1.30;;;;;;;;;;4988337;28;20053;-58
2023/09/14 14:15:51;;;;;;;1.53;1.10;;;;;;;;;;4989493;28;20030;-58
2023/09/14 14:18:18;;;;;;;0.63;0.63;;;;;;;;;;4990655;28;20069;-57
2023/09/14 14:20:45;;;;;;;3.80;1.60;;;;;;;;;;4994660;28;20466;-58
2023/09/14 14:23:11;;;;;;;1.20;0.70;;;;;;;;;;4994839;28;20054;-58
2023/09/14 14:25:39;;;;;;;0.87;0.67;;;;;;;;;;4994339;28;20139;-58
2023/09/14 14:28:05;;;;;;;6.13;0.87;;;;;;;;;;4994536;28;20027;-58
2023/09/14 14:30:32;;;;;;;0.80;0.70;;;;;;;;;;4993245;28;20037;-57
2023/09/14 14:32:59;;;;;;;1.60;0.73;;;;;;;;;;4988909;28;20482;-58
2023/09/14 14:35:25;;;;;;;2.97;1.27;;;;;;;;;;4988742;28;20039;-58
2023/09/14 14:37:52;;;;;;;1.23;0.90;;;;;;;;;;4989105;28;20037;-58
2023/09/14 14:40:19;;;;;;;0.93;0.80;;;;;;;;;;4988912;28;20469;-58
2023/09/14 14:42:45;;;;;;;1.63;1.00;;;;;;;;;;4994435;28;20030;-58
2023/09/14 14:45:12;;;;;;;1.60;1.10;;;;;;;;;;4994247;28;20028;-58